sensor_id;sensor_type;location;lat;lon;timestamp;pressure;altitude;pressure_sealevel;temperature;humidity
22550;BME280;11441;57.164;-2.120;2023-02-23T00:01:53;101525.53;;;3.14;100.00
22550;BME280;11441;57.164;-2.120;2023-02-23T00:04:20;101517.56;;;3.23;100.00
22550;BME280;11441;57.164;-2.120;2023-02-23T00:06:47;101511.34;;;3.46;100.00
22550;BME280;11441;57.164;-2.120;2023-02-23T00:09:14;101522.25;;;3.46;100.00
22550;BME280;11441;57.164;-2.120;2023-02-23T00:11:55;101517.44;;;3.38;100.00
22550;BME280;11441;57.164;-2.120;2023-02-23T00:14:27;101516.75;;;3.51;100.00
22550;BME280;11441;57.164;-2.120;2023-02-23T00:16:55;101519.69;;;3.55;100.00
22550;BME280;11441;57.164;-2.120;2023-02-23T00:19:23;101521.81;;;3.63;100.00
22550;BME280;11441;57.164;-2.120;2023-02-23T00:21:51;101517.31;;;3.48;100.00
22550;BME280;11441;57.164;-2.120;2023-02-23T00:24:18;101519.47;;;3.51;100.00
22550;BME280;11441;57.164;-2.120;2023-02-23T00:26:47;101515.78;;;3.37;100.00
22550;BME280;11441;57.164;-2.120;2023-02-23T00:29:18;101526.31;;;3.49;100.00
22550;BME280;11441;57.164;-2.120;2023-02-23T00:31:47;101534.44;;;3.54;100.00
22550;BME280;11441;57.164;-2.120;2023-02-23T00:34:15;101529.78;;;3.54;100.00
22550;BME280;11441;57.164;-2.120;2023-02-23T00:36:49;101527.13;;;3.49;100.00
22550;BME280;11441;57.164;-2.120;2023-02-23T00:39:16;101533.66;;;3.48;100.00
22550;BME280;11441;57.164;-2.120;2023-02-23T00:41:44;101542.13;;;3.47;100.00
22550;BME280;11441;57.164;-2.120;2023-02-23T00:44:12;101529.66;;;3.40;100.00
22550;BME280;11441;57.164;-2.120;2023-02-23T00:46:42;101540.31;;;3.37;100.00
22550;BME280;11441;57.164;-2.120;2023-02-23T00:49:27;101534.81;;;3.42;100.00
22550;BME280;11441;57.164;-2.120;2023-02-23T00:51:54;101541.75;;;3.29;100.00
22550;BME280;11441;57.164;-2.120;2023-02-23T00:54:21;101540.81;;;3.39;100.00
22550;BME280;11441;57.164;-2.120;2023-02-23T00:56:48;101540.34;;;3.32;100.00
22550;BME280;11441;57.164;-2.120;2023-02-23T00:59:16;101549.47;;;3.46;100.00
22550;BME280;11441;57.164;-2.120;2023-02-23T01:01:43;101549.63;;;3.26;100.00
22550;BME280;11441;57.164;-2.120;2023-02-23T01:04:11;101550.72;;;3.30;100.00
22550;BME280;11441;57.164;-2.120;2023-02-23T01:06:39;101556.41;;;3.33;100.00
22550;BME280;11441;57.164;-2.120;2023-02-23T01:09:13;101561.28;;;3.36;100.00
22550;BME280;11441;57.164;-2.120;2023-02-23T01:11:41;101557.81;;;3.26;100.00
22550;BME280;11441;57.164;-2.120;2023-02-23T01:14:13;101550.78;;;3.19;100.00
22550;BME280;11441;57.164;-2.120;2023-02-23T01:16:40;101560.28;;;3.22;100.00
22550;BME280;11441;57.164;-2.120;2023-02-23T01:19:06;101554.19;;;3.35;100.00
22550;BME280;11441;57.164;-2.120;2023-02-23T01:21:39;101554.69;;;3.43;100.00
22550;BME280;11441;57.164;-2.120;2023-02-23T01:24:07;101549.16;;;3.18;100.00
22550;BME280;11441;57.164;-2.120;2023-02-23T01:26:37;101544.47;;;3.29;100.00
22550;BME280;11441;57.164;-2.120;2023-02-23T01:29:09;101559.41;;;3.32;100.00
22550;BME280;11441;57.164;-2.120;2023-02-23T01:31:43;101560.88;;;3.48;100.00
22550;BME280;11441;57.164;-2.120;2023-02-23T01:34:34;101568.91;;;3.34;100.00
22550;BME280;11441;57.164;-2.120;2023-02-23T01:37:02;101571.69;;;3.29;100.00
22550;BME280;11441;57.164;-2.120;2023-02-23T01:39:31;101566.78;;;3.31;100.00
22550;BME280;11441;57.164;-2.120;2023-02-23T01:41:58;101574.09;;;3.31;100.00
22550;BME280;11441;57.164;-2.120;2023-02-23T01:46:54;101574.16;;;3.26;100.00
22550;BME280;11441;57.164;-2.120;2023-02-23T01:49:24;101578.91;;;3.44;100.00
22550;BME280;11441;57.164;-2.120;2023-02-23T01:52:01;101588.03;;;3.29;100.00
22550;BME280;11441;57.164;-2.120;2023-02-23T01:54:38;101591.84;;;3.28;100.00
22550;BME280;11441;57.164;-2.120;2023-02-23T01:57:25;101595.72;;;3.17;100.00
22550;BME280;11441;57.164;-2.120;2023-02-23T01:59:52;101598.06;;;3.34;100.00
22550;BME280;11441;57.164;-2.120;2023-02-23T02:02:23;101598.56;;;3.36;100.00
22550;BME280;11441;57.164;-2.120;2023-02-23T02:04:59;101601.34;;;3.31;100.00
22550;BME280;11441;57.164;-2.120;2023-02-23T02:07:28;101596.69;;;3.36;100.00
22550;BME280;11441;57.164;-2.120;2023-02-23T02:09:57;101595.78;;;3.46;100.00
22550;BME280;11441;57.164;-2.120;2023-02-23T02:12:37;101604.03;;;3.36;100.00
22550;BME280;11441;57.164;-2.120;2023-02-23T02:15:06;101599.13;;;3.38;100.00
22550;BME280;11441;57.164;-2.120;2023-02-23T02:26:32;101589.47;;;3.51;100.00
22550;BME280;11441;57.164;-2.120;2023-02-23T02:40:10;101594.84;;;3.61;100.00
22550;BME280;11441;57.164;-2.120;2023-02-23T02:42:58;101596.56;;;3.52;100.00
22550;BME280;11441;57.164;-2.120;2023-02-23T02:45:50;101596.13;;;3.69;100.00
22550;BME280;11441;57.164;-2.120;2023-02-23T02:51:43;101587.47;;;3.62;100.00
22550;BME280;11441;57.164;-2.120;2023-02-23T02:56:49;101594.59;;;3.57;100.00
22550;BME280;11441;57.164;-2.120;2023-02-23T02:59:19;101593.16;;;3.65;100.00
22550;BME280;11441;57.164;-2.120;2023-02-23T03:02:06;101585.59;;;3.57;100.00
22550;BME280;11441;57.164;-2.120;2023-02-23T03:04:55;101594.53;;;3.68;100.00
22550;BME280;11441;57.164;-2.120;2023-02-23T03:07:55;101600.81;;;3.63;100.00
22550;BME280;11441;57.164;-2.120;2023-02-23T03:22:59;101602.38;;;3.40;100.00
22550;BME280;11441;57.164;-2.120;2023-02-23T03:28:49;101606.81;;;3.26;100.00
22550;BME280;11441;57.164;-2.120;2023-02-23T03:31:47;101598.13;;;3.24;100.00
22550;BME280;11441;57.164;-2.120;2023-02-23T03:34:41;101609.66;;;3.15;100.00
22550;BME280;11441;57.164;-2.120;2023-02-23T03:37:40;101607.81;;;3.00;100.00
22550;BME280;11441;57.164;-2.120;2023-02-23T03:40:34;101607.66;;;3.26;100.00
22550;BME280;11441;57.164;-2.120;2023-02-23T03:43:43;101601.53;;;3.39;100.00
22550;BME280;11441;57.164;-2.120;2023-02-23T03:46:30;101599.75;;;3.25;100.00
22550;BME280;11441;57.164;-2.120;2023-02-23T03:49:17;101601.69;;;3.24;100.00
22550;BME280;11441;57.164;-2.120;2023-02-23T03:52:10;101601.94;;;3.28;100.00
22550;BME280;11441;57.164;-2.120;2023-02-23T03:55:03;101609.72;;;3.39;100.00
22550;BME280;11441;57.164;-2.120;2023-02-23T03:57:52;101609.69;;;3.45;100.00
22550;BME280;11441;57.164;-2.120;2023-02-23T04:00:45;101611.03;;;3.47;100.00
22550;BME280;11441;57.164;-2.120;2023-02-23T04:03:35;101613.72;;;3.52;100.00
22550;BME280;11441;57.164;-2.120;2023-02-23T04:06:25;101602.06;;;3.47;100.00
22550;BME280;11441;57.164;-2.120;2023-02-23T04:09:13;101599.34;;;3.47;100.00
22550;BME280;11441;57.164;-2.120;2023-02-23T04:17:51;101598.97;;;3.24;100.00
22550;BME280;11441;57.164;-2.120;2023-02-23T04:20:18;101608.59;;;3.06;100.00
22550;BME280;11441;57.164;-2.120;2023-02-23T04:22:45;101600.44;;;3.06;100.00
22550;BME280;11441;57.164;-2.120;2023-02-23T04:25:14;101598.19;;;3.13;100.00
22550;BME280;11441;57.164;-2.120;2023-02-23T04:27:43;101594.34;;;3.19;100.00
22550;BME280;11441;57.164;-2.120;2023-02-23T04:30:10;101590.56;;;3.20;100.00
22550;BME280;11441;57.164;-2.120;2023-02-23T04:32:37;101584.03;;;3.16;100.00
22550;BME280;11441;57.164;-2.120;2023-02-23T04:35:04;101574.81;;;3.12;100.00
22550;BME280;11441;57.164;-2.120;2023-02-23T04:37:31;101577.28;;;3.09;100.00
22550;BME280;11441;57.164;-2.120;2023-02-23T04:39:58;101573.09;;;3.21;100.00
22550;BME280;11441;57.164;-2.120;2023-02-23T04:42:43;101571.19;;;3.22;100.00
22550;BME280;11441;57.164;-2.120;2023-02-23T04:45:29;101567.75;;;3.06;100.00
22550;BME280;11441;57.164;-2.120;2023-02-23T04:47:55;101575.44;;;2.99;100.00
22550;BME280;11441;57.164;-2.120;2023-02-23T04:50:40;101579.25;;;3.03;100.00
22550;BME280;11441;57.164;-2.120;2023-02-23T04:53:06;101577.69;;;2.87;100.00
22550;BME280;11441;57.164;-2.120;2023-02-23T04:55:33;101573.69;;;2.74;100.00
22550;BME280;11441;57.164;-2.120;2023-02-23T04:58:00;101572.81;;;2.83;100.00
22550;BME280;11441;57.164;-2.120;2023-02-23T05:00:28;101568.25;;;2.74;100.00
22550;BME280;11441;57.164;-2.120;2023-02-23T05:02:56;101583.47;;;2.75;100.00
22550;BME280;11441;57.164;-2.120;2023-02-23T05:05:23;101582.06;;;2.82;100.00
22550;BME280;11441;57.164;-2.120;2023-02-23T05:07:50;101584.19;;;2.91;100.00
22550;BME280;11441;57.164;-2.120;2023-02-23T05:10:17;101571.66;;;2.95;100.00
22550;BME280;11441;57.164;-2.120;2023-02-23T05:12:44;101570.88;;;2.89;100.00
22550;BME280;11441;57.164;-2.120;2023-02-23T05:15:12;101572.78;;;2.89;100.00
22550;BME280;11441;57.164;-2.120;2023-02-23T05:17:39;101573.09;;;2.82;100.00
22550;BME280;11441;57.164;-2.120;2023-02-23T05:20:11;101566.00;;;2.86;100.00
22550;BME280;11441;57.164;-2.120;2023-02-23T05:22:39;101552.41;;;2.86;100.00
22550;BME280;11441;57.164;-2.120;2023-02-23T05:25:06;101543.75;;;2.79;100.00
22550;BME280;11441;57.164;-2.120;2023-02-23T05:27:35;101553.47;;;2.85;100.00
22550;BME280;11441;57.164;-2.120;2023-02-23T05:30:04;101546.88;;;2.96;100.00
22550;BME280;11441;57.164;-2.120;2023-02-23T05:32:31;101541.75;;;2.90;100.00
22550;BME280;11441;57.164;-2.120;2023-02-23T05:34:58;101537.66;;;2.92;100.00
22550;BME280;11441;57.164;-2.120;2023-02-23T05:37:24;101527.41;;;2.79;100.00
22550;BME280;11441;57.164;-2.120;2023-02-23T05:40:10;101532.00;;;2.83;100.00
22550;BME280;11441;57.164;-2.120;2023-02-23T05:42:37;101527.03;;;2.91;100.00
22550;BME280;11441;57.164;-2.120;2023-02-23T05:45:05;101519.09;;;2.99;100.00
22550;BME280;11441;57.164;-2.120;2023-02-23T05:47:33;101516.91;;;3.01;100.00
22550;BME280;11441;57.164;-2.120;2023-02-23T05:50:06;101505.75;;;3.03;100.00
22550;BME280;11441;57.164;-2.120;2023-02-23T05:52:37;101503.78;;;3.09;100.00
22550;BME280;11441;57.164;-2.120;2023-02-23T05:55:09;101508.13;;;3.10;100.00
22550;BME280;11441;57.164;-2.120;2023-02-23T05:57:38;101492.63;;;3.10;100.00
22550;BME280;11441;57.164;-2.120;2023-02-23T06:00:06;101492.03;;;3.13;100.00
22550;BME280;11441;57.164;-2.120;2023-02-23T06:02:34;101500.16;;;3.18;100.00
22550;BME280;11441;57.164;-2.120;2023-02-23T06:05:02;101506.75;;;3.12;100.00
22550;BME280;11441;57.164;-2.120;2023-02-23T06:07:28;101507.06;;;3.06;100.00
22550;BME280;11441;57.164;-2.120;2023-02-23T06:10:14;101514.41;;;3.10;100.00
22550;BME280;11441;57.164;-2.120;2023-02-23T06:12:41;101517.38;;;3.14;100.00
22550;BME280;11441;57.164;-2.120;2023-02-23T06:15:08;101512.75;;;3.09;100.00
22550;BME280;11441;57.164;-2.120;2023-02-23T06:17:35;101512.00;;;3.04;100.00
22550;BME280;11441;57.164;-2.120;2023-02-23T06:20:03;101511.22;;;2.98;100.00
22550;BME280;11441;57.164;-2.120;2023-02-23T06:22:30;101507.44;;;2.94;100.00
22550;BME280;11441;57.164;-2.120;2023-02-23T06:24:57;101509.88;;;2.95;100.00
22550;BME280;11441;57.164;-2.120;2023-02-23T06:27:24;101494.31;;;3.01;100.00
22550;BME280;11441;57.164;-2.120;2023-02-23T06:29:51;101499.31;;;2.89;100.00
22550;BME280;11441;57.164;-2.120;2023-02-23T06:32:18;101505.28;;;2.91;100.00
22550;BME280;11441;57.164;-2.120;2023-02-23T06:34:48;101508.16;;;2.70;100.00
22550;BME280;11441;57.164;-2.120;2023-02-23T06:37:14;101513.00;;;2.73;100.00
22550;BME280;11441;57.164;-2.120;2023-02-23T06:39:41;101514.38;;;2.76;100.00
22550;BME280;11441;57.164;-2.120;2023-02-23T06:42:08;101513.81;;;2.79;100.00
22550;BME280;11441;57.164;-2.120;2023-02-23T06:44:35;101520.41;;;2.68;100.00
22550;BME280;11441;57.164;-2.120;2023-02-23T06:47:03;101523.81;;;2.83;100.00
22550;BME280;11441;57.164;-2.120;2023-02-23T06:49:31;101527.44;;;2.74;100.00
22550;BME280;11441;57.164;-2.120;2023-02-23T06:51:58;101530.78;;;2.60;100.00
22550;BME280;11441;57.164;-2.120;2023-02-23T06:54:25;101538.13;;;2.60;100.00
22550;BME280;11441;57.164;-2.120;2023-02-23T06:56:52;101528.31;;;2.64;100.00
22550;BME280;11441;57.164;-2.120;2023-02-23T06:59:22;101535.22;;;2.46;100.00
22550;BME280;11441;57.164;-2.120;2023-02-23T07:01:49;101535.19;;;2.51;100.00
22550;BME280;11441;57.164;-2.120;2023-02-23T07:04:17;101546.81;;;2.62;100.00
22550;BME280;11441;57.164;-2.120;2023-02-23T07:06:43;101550.94;;;2.54;100.00
22550;BME280;11441;57.164;-2.120;2023-02-23T07:09:29;101557.16;;;2.65;100.00
22550;BME280;11441;57.164;-2.120;2023-02-23T07:11:56;101554.47;;;2.60;100.00
22550;BME280;11441;57.164;-2.120;2023-02-23T07:14:23;101556.06;;;2.61;100.00
22550;BME280;11441;57.164;-2.120;2023-02-23T07:16:53;101564.28;;;2.45;100.00
22550;BME280;11441;57.164;-2.120;2023-02-23T07:19:20;101555.56;;;2.54;100.00
22550;BME280;11441;57.164;-2.120;2023-02-23T07:21:46;101562.38;;;2.51;100.00
22550;BME280;11441;57.164;-2.120;2023-02-23T07:24:13;101577.63;;;2.42;100.00
22550;BME280;11441;57.164;-2.120;2023-02-23T07:26:40;101572.44;;;2.51;100.00
22550;BME280;11441;57.164;-2.120;2023-02-23T07:29:10;101561.56;;;2.51;100.00
22550;BME280;11441;57.164;-2.120;2023-02-23T07:31:55;101565.66;;;2.48;100.00
22550;BME280;11441;57.164;-2.120;2023-02-23T07:34:22;101562.72;;;2.34;100.00
22550;BME280;11441;57.164;-2.120;2023-02-23T07:36:49;101570.88;;;2.34;100.00
22550;BME280;11441;57.164;-2.120;2023-02-23T07:39:16;101574.94;;;2.37;100.00
22550;BME280;11441;57.164;-2.120;2023-02-23T07:41:42;101577.84;;;2.56;100.00
22550;BME280;11441;57.164;-2.120;2023-02-23T07:44:17;101579.75;;;2.55;100.00
22550;BME280;11441;57.164;-2.120;2023-02-23T07:46:43;101583.56;;;2.54;100.00
22550;BME280;11441;57.164;-2.120;2023-02-23T07:49:12;101585.75;;;2.52;100.00
22550;BME280;11441;57.164;-2.120;2023-02-23T07:51:40;101593.59;;;2.64;100.00
22550;BME280;11441;57.164;-2.120;2023-02-23T07:54:07;101590.78;;;2.85;100.00
22550;BME280;11441;57.164;-2.120;2023-02-23T07:56:33;101590.25;;;2.82;100.00
22550;BME280;11441;57.164;-2.120;2023-02-23T07:59:01;101586.41;;;2.83;100.00
22550;BME280;11441;57.164;-2.120;2023-02-23T08:01:28;101591.25;;;2.97;100.00
22550;BME280;11441;57.164;-2.120;2023-02-23T08:03:55;101589.16;;;2.78;100.00
22550;BME280;11441;57.164;-2.120;2023-02-23T08:06:21;101586.38;;;2.89;100.00
22550;BME280;11441;57.164;-2.120;2023-02-23T08:08:48;101578.78;;;2.86;100.00
22550;BME280;11441;57.164;-2.120;2023-02-23T08:11:15;101584.13;;;3.01;100.00
22550;BME280;11441;57.164;-2.120;2023-02-23T08:13:42;101576.81;;;2.96;100.00
22550;BME280;11441;57.164;-2.120;2023-02-23T08:16:09;101582.25;;;3.01;100.00
22550;BME280;11441;57.164;-2.120;2023-02-23T08:18:56;101579.47;;;3.07;100.00
22550;BME280;11441;57.164;-2.120;2023-02-23T08:21:28;101577.84;;;3.06;100.00
22550;BME280;11441;57.164;-2.120;2023-02-23T08:23:58;101573.22;;;3.06;100.00
22550;BME280;11441;57.164;-2.120;2023-02-23T08:26:25;101562.28;;;3.11;100.00
22550;BME280;11441;57.164;-2.120;2023-02-23T08:28:53;101570.59;;;3.30;100.00
22550;BME280;11441;57.164;-2.120;2023-02-23T08:31:20;101580.34;;;3.36;100.00
22550;BME280;11441;57.164;-2.120;2023-02-23T08:33:50;101576.47;;;3.43;100.00
22550;BME280;11441;57.164;-2.120;2023-02-23T08:36:18;101564.88;;;3.61;100.00
22550;BME280;11441;57.164;-2.120;2023-02-23T08:38:46;101580.31;;;3.71;100.00
22550;BME280;11441;57.164;-2.120;2023-02-23T08:41:14;101578.78;;;3.89;100.00
22550;BME280;11441;57.164;-2.120;2023-02-23T08:43:41;101563.56;;;3.83;100.00
22550;BME280;11441;57.164;-2.120;2023-02-23T08:46:09;101567.03;;;3.88;100.00
22550;BME280;11441;57.164;-2.120;2023-02-23T08:48:36;101566.81;;;3.85;100.00
22550;BME280;11441;57.164;-2.120;2023-02-23T08:51:06;101571.34;;;3.94;100.00
22550;BME280;11441;57.164;-2.120;2023-02-23T08:53:33;101568.88;;;3.98;100.00
22550;BME280;11441;57.164;-2.120;2023-02-23T08:56:03;101573.00;;;3.95;100.00
22550;BME280;11441;57.164;-2.120;2023-02-23T08:58:33;101571.47;;;4.08;100.00
22550;BME280;11441;57.164;-2.120;2023-02-23T09:01:01;101571.25;;;4.05;100.00
22550;BME280;11441;57.164;-2.120;2023-02-23T09:03:28;101565.44;;;3.87;100.00
22550;BME280;11441;57.164;-2.120;2023-02-23T09:06:09;101573.22;;;3.99;100.00
22550;BME280;11441;57.164;-2.120;2023-02-23T09:08:36;101561.50;;;3.99;100.00
22550;BME280;11441;57.164;-2.120;2023-02-23T09:11:04;101569.63;;;4.04;100.00
22550;BME280;11441;57.164;-2.120;2023-02-23T09:13:31;101567.41;;;4.06;100.00
22550;BME280;11441;57.164;-2.120;2023-02-23T09:15:58;101566.50;;;4.15;100.00
22550;BME280;11441;57.164;-2.120;2023-02-23T09:18:44;101556.09;;;4.18;100.00
22550;BME280;11441;57.164;-2.120;2023-02-23T09:21:16;101559.06;;;4.21;100.00
22550;BME280;11441;57.164;-2.120;2023-02-23T09:23:51;101539.41;;;4.24;100.00
22550;BME280;11441;57.164;-2.120;2023-02-23T09:26:19;101537.53;;;4.20;100.00
22550;BME280;11441;57.164;-2.120;2023-02-23T09:28:47;101536.47;;;4.40;100.00
22550;BME280;11441;57.164;-2.120;2023-02-23T09:31:16;101533.75;;;4.40;100.00
22550;BME280;11441;57.164;-2.120;2023-02-23T09:34:01;101531.72;;;4.69;100.00
22550;BME280;11441;57.164;-2.120;2023-02-23T09:36:28;101537.44;;;4.49;100.00
22550;BME280;11441;57.164;-2.120;2023-02-23T09:38:56;101523.00;;;4.67;100.00
22550;BME280;11441;57.164;-2.120;2023-02-23T09:49:46;101526.59;;;5.01;100.00
22550;BME280;11441;57.164;-2.120;2023-02-23T09:52:21;101520.41;;;4.95;100.00
22550;BME280;11441;57.164;-2.120;2023-02-23T09:54:49;101522.22;;;5.00;100.00
22550;BME280;11441;57.164;-2.120;2023-02-23T09:57:32;101527.03;;;5.08;100.00
22550;BME280;11441;57.164;-2.120;2023-02-23T10:00:10;101511.19;;;5.24;100.00
22550;BME280;11441;57.164;-2.120;2023-02-23T10:02:53;101519.34;;;5.10;100.00
22550;BME280;11441;57.164;-2.120;2023-02-23T10:05:22;101508.84;;;5.17;100.00
22550;BME280;11441;57.164;-2.120;2023-02-23T10:08:00;101518.97;;;5.17;100.00
22550;BME280;11441;57.164;-2.120;2023-02-23T10:10:51;101513.75;;;5.34;100.00
22550;BME280;11441;57.164;-2.120;2023-02-23T10:16:21;101515.00;;;5.42;100.00
22550;BME280;11441;57.164;-2.120;2023-02-23T10:21:40;101509.38;;;5.66;100.00
22550;BME280;11441;57.164;-2.120;2023-02-23T10:24:16;101510.56;;;5.46;100.00
22550;BME280;11441;57.164;-2.120;2023-02-23T10:26:57;101512.81;;;5.58;100.00
22550;BME280;11441;57.164;-2.120;2023-02-23T10:29:30;101511.41;;;5.74;100.00
22550;BME280;11441;57.164;-2.120;2023-02-23T10:32:02;101503.91;;;5.80;100.00
22550;BME280;11441;57.164;-2.120;2023-02-23T10:34:31;101485.59;;;5.66;100.00
22550;BME280;11441;57.164;-2.120;2023-02-23T10:37:03;101488.53;;;5.70;100.00
22550;BME280;11441;57.164;-2.120;2023-02-23T10:39:32;101478.41;;;5.84;100.00
22550;BME280;11441;57.164;-2.120;2023-02-23T10:42:03;101473.97;;;6.02;100.00
22550;BME280;11441;57.164;-2.120;2023-02-23T10:44:31;101469.09;;;5.85;100.00
22550;BME280;11441;57.164;-2.120;2023-02-23T10:47:06;101468.06;;;5.95;100.00
22550;BME280;11441;57.164;-2.120;2023-02-23T10:49:54;101469.53;;;6.07;100.00
22550;BME280;11441;57.164;-2.120;2023-02-23T10:52:28;101460.38;;;6.11;100.00
22550;BME280;11441;57.164;-2.120;2023-02-23T10:54:58;101459.78;;;6.14;100.00
22550;BME280;11441;57.164;-2.120;2023-02-23T10:57:27;101449.50;;;6.34;100.00
22550;BME280;11441;57.164;-2.120;2023-02-23T11:02:37;101440.00;;;6.31;100.00
22550;BME280;11441;57.164;-2.120;2023-02-23T11:05:05;101440.56;;;6.42;100.00
22550;BME280;11441;57.164;-2.120;2023-02-23T11:07:33;101440.72;;;6.59;100.00
22550;BME280;11441;57.164;-2.120;2023-02-23T11:10:24;101442.72;;;6.68;100.00
22550;BME280;11441;57.164;-2.120;2023-02-23T11:13:25;101442.47;;;6.55;100.00
22550;BME280;11441;57.164;-2.120;2023-02-23T11:15:58;101447.63;;;6.57;100.00
22550;BME280;11441;57.164;-2.120;2023-02-23T11:18:26;101444.06;;;6.56;100.00
22550;BME280;11441;57.164;-2.120;2023-02-23T11:20:54;101445.81;;;6.75;100.00
22550;BME280;11441;57.164;-2.120;2023-02-23T11:23:26;101440.22;;;6.80;100.00
22550;BME280;11441;57.164;-2.120;2023-02-23T11:26:03;101436.88;;;6.83;100.00
22550;BME280;11441;57.164;-2.120;2023-02-23T11:28:41;101431.03;;;6.76;100.00
22550;BME280;11441;57.164;-2.120;2023-02-23T11:31:32;101424.53;;;6.72;100.00
22550;BME280;11441;57.164;-2.120;2023-02-23T11:34:02;101424.66;;;6.67;100.00
22550;BME280;11441;57.164;-2.120;2023-02-23T11:36:33;101410.47;;;6.87;100.00
22550;BME280;11441;57.164;-2.120;2023-02-23T11:41:43;101414.66;;;6.85;100.00
22550;BME280;11441;57.164;-2.120;2023-02-23T11:44:19;101409.38;;;6.88;100.00
22550;BME280;11441;57.164;-2.120;2023-02-23T11:46:48;101397.19;;;7.03;100.00
22550;BME280;11441;57.164;-2.120;2023-02-23T11:49:24;101398.28;;;7.25;100.00
22550;BME280;11441;57.164;-2.120;2023-02-23T11:51:53;101384.53;;;7.16;100.00
22550;BME280;11441;57.164;-2.120;2023-02-23T11:54:28;101387.94;;;7.22;100.00
22550;BME280;11441;57.164;-2.120;2023-02-23T11:56:57;101381.94;;;7.11;100.00
22550;BME280;11441;57.164;-2.120;2023-02-23T11:59:31;101382.63;;;7.25;100.00
22550;BME280;11441;57.164;-2.120;2023-02-23T12:04:51;101362.28;;;7.58;100.00
22550;BME280;11441;57.164;-2.120;2023-02-23T12:07:40;101358.38;;;7.50;100.00
22550;BME280;11441;57.164;-2.120;2023-02-23T12:10:14;101363.22;;;7.44;100.00
22550;BME280;11441;57.164;-2.120;2023-02-23T12:13:20;101352.69;;;7.29;100.00
22550;BME280;11441;57.164;-2.120;2023-02-23T12:15:53;101352.06;;;7.41;100.00
22550;BME280;11441;57.164;-2.120;2023-02-23T12:21:26;101336.47;;;7.59;100.00
22550;BME280;11441;57.164;-2.120;2023-02-23T12:24:05;101329.56;;;7.61;100.00
22550;BME280;11441;57.164;-2.120;2023-02-23T12:27:04;101331.81;;;7.77;100.00
22550;BME280;11441;57.164;-2.120;2023-02-23T12:33:10;101304.09;;;7.78;100.00
22550;BME280;11441;57.164;-2.120;2023-02-23T12:35:59;101290.88;;;7.89;100.00
22550;BME280;11441;57.164;-2.120;2023-02-23T12:38:50;101287.94;;;7.77;100.00
22550;BME280;11441;57.164;-2.120;2023-02-23T12:41:35;101274.09;;;7.99;100.00
22550;BME280;11441;57.164;-2.120;2023-02-23T12:44:28;101272.50;;;7.89;100.00
22550;BME280;11441;57.164;-2.120;2023-02-23T12:47:03;101267.31;;;7.97;100.00
22550;BME280;11441;57.164;-2.120;2023-02-23T12:49:43;101256.31;;;8.31;100.00
22550;BME280;11441;57.164;-2.120;2023-02-23T12:52:24;101249.88;;;8.27;100.00
22550;BME280;11441;57.164;-2.120;2023-02-23T12:54:54;101245.97;;;8.28;100.00
22550;BME280;11441;57.164;-2.120;2023-02-23T12:57:29;101232.69;;;8.39;100.00
22550;BME280;11441;57.164;-2.120;2023-02-23T13:05:32;101222.53;;;8.40;100.00
22550;BME280;11441;57.164;-2.120;2023-02-23T13:16:56;101191.34;;;8.53;100.00
22550;BME280;11441;57.164;-2.120;2023-02-23T13:19:34;101199.72;;;8.57;100.00
22550;BME280;11441;57.164;-2.120;2023-02-23T13:22:36;101191.91;;;8.76;100.00
22550;BME280;11441;57.164;-2.120;2023-02-23T13:28:20;101170.06;;;8.41;100.00
22550;BME280;11441;57.164;-2.120;2023-02-23T13:30:48;101172.50;;;8.43;100.00
22550;BME280;11441;57.164;-2.120;2023-02-23T13:33:34;101173.00;;;8.36;100.00
22550;BME280;11441;57.164;-2.120;2023-02-23T13:36:10;101178.84;;;8.17;100.00
22550;BME280;11441;57.164;-2.120;2023-02-23T13:41:47;101169.63;;;8.22;100.00
22550;BME280;11441;57.164;-2.120;2023-02-23T13:53:05;101121.53;;;8.24;100.00
22550;BME280;11441;57.164;-2.120;2023-02-23T13:55:51;101135.81;;;8.47;100.00
22550;BME280;11441;57.164;-2.120;2023-02-23T13:58:26;101126.44;;;8.57;100.00
22550;BME280;11441;57.164;-2.120;2023-02-23T14:01:14;101118.47;;;8.64;100.00
22550;BME280;11441;57.164;-2.120;2023-02-23T14:03:51;101121.59;;;8.54;100.00
22550;BME280;11441;57.164;-2.120;2023-02-23T14:06:22;101117.59;;;8.43;100.00
22550;BME280;11441;57.164;-2.120;2023-02-23T14:08:54;101115.34;;;8.45;100.00
22550;BME280;11441;57.164;-2.120;2023-02-23T14:11:37;101120.59;;;8.59;100.00
22550;BME280;11441;57.164;-2.120;2023-02-23T14:14:12;101121.59;;;8.54;100.00
22550;BME280;11441;57.164;-2.120;2023-02-23T14:16:42;101115.03;;;8.38;100.00
22550;BME280;11441;57.164;-2.120;2023-02-23T14:19:35;101110.81;;;8.40;100.00
22550;BME280;11441;57.164;-2.120;2023-02-23T14:22:10;101112.44;;;8.41;100.00
22550;BME280;11441;57.164;-2.120;2023-02-23T14:24:38;101116.78;;;8.42;100.00
22550;BME280;11441;57.164;-2.120;2023-02-23T14:27:23;101109.75;;;8.62;100.00
22550;BME280;11441;57.164;-2.120;2023-02-23T14:32:45;101098.03;;;8.74;100.00
22550;BME280;11441;57.164;-2.120;2023-02-23T14:38:14;101090.66;;;8.45;100.00
22550;BME280;11441;57.164;-2.120;2023-02-23T14:40:44;101086.91;;;8.71;100.00
22550;BME280;11441;57.164;-2.120;2023-02-23T14:43:37;101086.72;;;8.76;100.00
22550;BME280;11441;57.164;-2.120;2023-02-23T14:46:10;101083.16;;;8.54;100.00
22550;BME280;11441;57.164;-2.120;2023-02-23T14:48:39;101082.59;;;8.70;100.00
22550;BME280;11441;57.164;-2.120;2023-02-23T14:51:47;101077.94;;;8.61;100.00
22550;BME280;11441;57.164;-2.120;2023-02-23T14:57:04;101067.88;;;8.95;100.00
22550;BME280;11441;57.164;-2.120;2023-02-23T14:59:39;101065.38;;;8.81;100.00
22550;BME280;11441;57.164;-2.120;2023-02-23T15:02:21;101052.91;;;8.84;100.00
22550;BME280;11441;57.164;-2.120;2023-02-23T15:04:50;101045.19;;;8.77;100.00
22550;BME280;11441;57.164;-2.120;2023-02-23T15:07:37;101042.47;;;8.77;100.00
22550;BME280;11441;57.164;-2.120;2023-02-23T15:10:15;101043.59;;;8.76;100.00